sensor_id;sensor_type;location;lat;lon;timestamp;pressure;altitude;pressure_sealevel;temperature
34310;BMP280;61664;48.112;11.662;2023-04-01T00:00:00;94291.81;;;11.48
34310;BMP280;61664;48.112;11.662;2023-04-01T00:02:27;94297.16;;;11.48
34310;BMP280;61664;48.112;11.662;2023-04-01T00:04:54;94288.69;;;11.44
34310;BMP280;61664;48.112;11.662;2023-04-01T00:07:20;94284.81;;;11.40
34310;BMP280;61664;48.112;11.662;2023-04-01T00:09:47;94285.50;;;11.40
34310;BMP280;61664;48.112;11.662;2023-04-01T00:12:14;94294.75;;;11.39
34310;BMP280;61664;48.112;11.662;2023-04-01T00:14:41;94276.53;;;11.38
34310;BMP280;61664;48.112;11.662;2023-04-01T00:17:08;94256.88;;;11.24
34310;BMP280;61664;48.112;11.662;2023-04-01T00:19:35;94262.94;;;11.25
34310;BMP280;61664;48.112;11.662;2023-04-01T00:22:02;94266.81;;;11.29
34310;BMP280;61664;48.112;11.662;2023-04-01T00:24:29;94261.94;;;11.28
34310;BMP280;61664;48.112;11.662;2023-04-01T00:26:56;94250.56;;;11.22
34310;BMP280;61664;48.112;11.662;2023-04-01T00:29:23;94261.22;;;11.27
34310;BMP280;61664;48.112;11.662;2023-04-01T00:31:51;94259.03;;;11.26
34310;BMP280;61664;48.112;11.662;2023-04-01T00:34:18;94253.97;;;11.22
34310;BMP280;61664;48.112;11.662;2023-04-01T00:36:44;94244.72;;;11.12
34310;BMP280;61664;48.112;11.662;2023-04-01T00:39:11;94243.25;;;11.11
34310;BMP280;61664;48.112;11.662;2023-04-01T00:41:38;94257.84;;;11.15
34310;BMP280;61664;48.112;11.662;2023-04-01T00:44:21;94261.50;;;11.12
34310;BMP280;61664;48.112;11.662;2023-04-01T00:46:49;94256.88;;;11.13
34310;BMP280;61664;48.112;11.662;2023-04-01T00:49:21;94262.69;;;11.11
34310;BMP280;61664;48.112;11.662;2023-04-01T00:51:56;94242.03;;;11.01
34310;BMP280;61664;48.112;11.662;2023-04-01T00:54:25;94241.81;;;11.04
34310;BMP280;61664;48.112;11.662;2023-04-01T00:57:11;94253.94;;;11.11
34310;BMP280;61664;48.112;11.662;2023-04-01T00:59:45;94246.66;;;11.06
34310;BMP280;61664;48.112;11.662;2023-04-01T01:02:15;94247.88;;;11.05
34310;BMP280;61664;48.112;11.662;2023-04-01T01:04:42;94221.41;;;11.01
34310;BMP280;61664;48.112;11.662;2023-04-01T01:13:15;94250.31;;;11.14
34310;BMP280;61664;48.112;11.662;2023-04-01T01:15:59;94258.06;;;11.17
34310;BMP280;61664;48.112;11.662;2023-04-01T01:18:38;94255.63;;;11.19
34310;BMP280;61664;48.112;11.662;2023-04-01T01:27:11;94258.34;;;11.25
34310;BMP280;61664;48.112;11.662;2023-04-01T01:37:56;94252.22;;;11.30
34310;BMP280;61664;48.112;11.662;2023-04-01T01:40:26;94252.50;;;11.32
34310;BMP280;61664;48.112;11.662;2023-04-01T01:43:00;94240.56;;;11.28
34310;BMP280;61664;48.112;11.662;2023-04-01T01:45:34;94220.91;;;11.25
34310;BMP280;61664;48.112;11.662;2023-04-01T01:48:04;94251.75;;;11.37
34310;BMP280;61664;48.112;11.662;2023-04-01T01:50:34;94236.91;;;11.36
34310;BMP280;61664;48.112;11.662;2023-04-01T01:53:09;94229.66;;;11.31
34310;BMP280;61664;48.112;11.662;2023-04-01T01:55:43;94235.00;;;11.31
34310;BMP280;61664;48.112;11.662;2023-04-01T02:00:53;94229.38;;;11.29
34310;BMP280;61664;48.112;11.662;2023-04-01T02:03:25;94231.84;;;11.33
34310;BMP280;61664;48.112;11.662;2023-04-01T02:05:57;94237.88;;;11.33
34310;BMP280;61664;48.112;11.662;2023-04-01T02:08:44;94241.06;;;11.32
34310;BMP280;61664;48.112;11.662;2023-04-01T02:11:16;94243.47;;;11.30
34310;BMP280;61664;48.112;11.662;2023-04-01T02:13:53;94253.94;;;11.33
34310;BMP280;61664;48.112;11.662;2023-04-01T02:16:31;94263.94;;;11.33
34310;BMP280;61664;48.112;11.662;2023-04-01T02:19:00;94261.72;;;11.31
34310;BMP280;61664;48.112;11.662;2023-04-01T02:21:32;94260.28;;;11.25
34310;BMP280;61664;48.112;11.662;2023-04-01T02:24:04;94261.47;;;11.29
34310;BMP280;61664;48.112;11.662;2023-04-01T02:26:32;94265.59;;;11.30
34310;BMP280;61664;48.112;11.662;2023-04-01T02:29:01;94257.13;;;11.32
34310;BMP280;61664;48.112;11.662;2023-04-01T02:31:31;94256.13;;;11.29
34310;BMP280;61664;48.112;11.662;2023-04-01T02:33:59;94246.41;;;11.20
34310;BMP280;61664;48.112;11.662;2023-04-01T02:36:27;94252.25;;;11.25
34310;BMP280;61664;48.112;11.662;2023-04-01T02:38:55;94254.16;;;11.30
34310;BMP280;61664;48.112;11.662;2023-04-01T02:41:25;94256.13;;;11.29
34310;BMP280;61664;48.112;11.662;2023-04-01T02:43:52;94235.50;;;11.24
34310;BMP280;61664;48.112;11.662;2023-04-01T02:46:19;94257.09;;;11.26
34310;BMP280;61664;48.112;11.662;2023-04-01T02:48:46;94259.75;;;11.26
34310;BMP280;61664;48.112;11.662;2023-04-01T02:51:13;94249.06;;;11.26
34310;BMP280;61664;48.112;11.662;2023-04-01T02:53:42;94264.63;;;11.28
34310;BMP280;61664;48.112;11.662;2023-04-01T02:56:09;94250.03;;;11.17
34310;BMP280;61664;48.112;11.662;2023-04-01T02:58:36;94272.66;;;11.22
34310;BMP280;61664;48.112;11.662;2023-04-01T03:01:03;94260.75;;;11.23
34310;BMP280;61664;48.112;11.662;2023-04-01T03:03:30;94263.19;;;11.21
34310;BMP280;61664;48.112;11.662;2023-04-01T03:05:56;94250.31;;;11.08
34310;BMP280;61664;48.112;11.662;2023-04-01T03:08:25;94273.66;;;11.25
34310;BMP280;61664;48.112;11.662;2023-04-01T03:10:52;94254.44;;;11.15
34310;BMP280;61664;48.112;11.662;2023-04-01T03:13:19;94272.91;;;11.24
34310;BMP280;61664;48.112;11.662;2023-04-01T03:15:45;94262.94;;;11.13
34310;BMP280;61664;48.112;11.662;2023-04-01T03:18:12;94257.81;;;11.10
34310;BMP280;61664;48.112;11.662;2023-04-01T03:20:39;94283.09;;;11.20
34310;BMP280;61664;48.112;11.662;2023-04-01T03:23:07;94280.91;;;11.18
34310;BMP280;61664;48.112;11.662;2023-04-01T03:25:34;94273.88;;;11.21
34310;BMP280;61664;48.112;11.662;2023-04-01T03:28:02;94276.28;;;11.19
34310;BMP280;61664;48.112;11.662;2023-04-01T03:30:29;94275.06;;;11.20
34310;BMP280;61664;48.112;11.662;2023-04-01T03:32:58;94294.78;;;11.17
34310;BMP280;61664;48.112;11.662;2023-04-01T03:35:27;94261.47;;;11.07
34310;BMP280;61664;48.112;11.662;2023-04-01T03:37:54;94284.34;;;11.13
34310;BMP280;61664;48.112;11.662;2023-04-01T03:40:22;94283.59;;;11.02
34310;BMP280;61664;48.112;11.662;2023-04-01T03:42:49;94275.09;;;10.92
34310;BMP280;61664;48.112;11.662;2023-04-01T03:45:17;94287.72;;;10.97
34310;BMP280;61664;48.112;11.662;2023-04-01T03:47:44;94289.16;;;10.87
34310;BMP280;61664;48.112;11.662;2023-04-01T03:50:11;94302.03;;;10.88
34310;BMP280;61664;48.112;11.662;2023-04-01T03:52:39;94303.47;;;10.78
34310;BMP280;61664;48.112;11.662;2023-04-01T03:55:06;94300.56;;;10.87
34310;BMP280;61664;48.112;11.662;2023-04-01T03:57:33;94302.03;;;10.88
34310;BMP280;61664;48.112;11.662;2023-04-01T04:00:00;94307.63;;;10.91
34310;BMP280;61664;48.112;11.662;2023-04-01T04:02:27;94295.97;;;10.82
34310;BMP280;61664;48.112;11.662;2023-04-01T04:04:54;94300.31;;;10.80
34310;BMP280;61664;48.112;11.662;2023-04-01T04:07:21;94301.78;;;10.86
34310;BMP280;61664;48.112;11.662;2023-04-01T04:09:48;94309.09;;;10.86
34310;BMP280;61664;48.112;11.662;2023-04-01T04:12:15;94301.31;;;10.82
34310;BMP280;61664;48.112;11.662;2023-04-01T04:14:41;94302.03;;;10.77
34310;BMP280;61664;48.112;11.662;2023-04-01T04:17:11;94294.00;;;10.72
34310;BMP280;61664;48.112;11.662;2023-04-01T04:19:43;94305.41;;;10.72
34310;BMP280;61664;48.112;11.662;2023-04-01T04:22:10;94305.88;;;10.65
34310;BMP280;61664;48.112;11.662;2023-04-01T04:24:38;94316.09;;;10.72
34310;BMP280;61664;48.112;11.662;2023-04-01T04:27:05;94303.72;;;10.75
34310;BMP280;61664;48.112;11.662;2023-04-01T04:29:32;94303.00;;;10.74
34310;BMP280;61664;48.112;11.662;2023-04-01T04:31:59;94309.31;;;10.82
34310;BMP280;61664;48.112;11.662;2023-04-01T04:34:26;94299.63;;;10.85
34310;BMP280;61664;48.112;11.662;2023-04-01T04:36:53;94311.97;;;10.88
34310;BMP280;61664;48.112;11.662;2023-04-01T04:39:20;94295.97;;;10.82
34310;BMP280;61664;48.112;11.662;2023-04-01T04:41:47;94307.88;;;10.81
34310;BMP280;61664;48.112;11.662;2023-04-01T04:44:14;94324.63;;;10.87
34310;BMP280;61664;48.112;11.662;2023-04-01T04:46:41;94308.81;;;10.78
34310;BMP280;61664;48.112;11.662;2023-04-01T04:49:08;94325.59;;;10.90
34310;BMP280;61664;48.112;11.662;2023-04-01T04:51:34;94311.97;;;10.88
34310;BMP280;61664;48.112;11.662;2023-04-01T04:54:03;94325.59;;;10.96
34310;BMP280;61664;48.112;11.662;2023-04-01T04:56:31;94320.31;;;11.01
34310;BMP280;61664;48.112;11.662;2023-04-01T04:58:59;94324.16;;;11.00
34310;BMP280;61664;48.112;11.662;2023-04-01T05:01:26;94338.75;;;11.05
34310;BMP280;61664;48.112;11.662;2023-04-01T05:03:53;94309.34;;;10.94
34310;BMP280;61664;48.112;11.662;2023-04-01T05:06:20;94316.88;;;11.01
34310;BMP280;61664;48.112;11.662;2023-04-01T05:08:49;94308.84;;;10.95
34310;BMP280;61664;48.112;11.662;2023-04-01T05:11:19;94325.88;;;11.09
34310;BMP280;61664;48.112;11.662;2023-04-01T05:13:46;94327.56;;;11.12
34310;BMP280;61664;48.112;11.662;2023-04-01T05:16:17;94317.63;;;11.12
34310;BMP280;61664;48.112;11.662;2023-04-01T05:18:45;94328.53;;;11.20
34310;BMP280;61664;48.112;11.662;2023-04-01T05:21:13;94312.00;;;11.10
34310;BMP280;61664;48.112;11.662;2023-04-01T05:23:41;94322.72;;;11.27
34310;BMP280;61664;48.112;11.662;2023-04-01T05:26:12;94316.91;;;11.23
34310;BMP280;61664;48.112;11.662;2023-04-01T05:28:40;94315.69;;;11.24
34310;BMP280;61664;48.112;11.662;2023-04-01T05:31:08;94318.09;;;11.33
34310;BMP280;61664;48.112;11.662;2023-04-01T05:33:35;94316.66;;;11.32
34310;BMP280;61664;48.112;11.662;2023-04-01T05:36:11;94326.84;;;11.39
34310;BMP280;61664;48.112;11.662;2023-04-01T05:38:39;94325.41;;;11.38
34310;BMP280;61664;48.112;11.662;2023-04-01T05:41:06;94316.16;;;11.39
34310;BMP280;61664;48.112;11.662;2023-04-01T05:43:36;94330.00;;;11.38
34310;BMP280;61664;48.112;11.662;2023-04-01T05:46:03;94328.06;;;11.38
34310;BMP280;61664;48.112;11.662;2023-04-01T05:48:32;94316.41;;;11.30
34310;BMP280;61664;48.112;11.662;2023-04-01T05:51:02;94337.78;;;11.41
34310;BMP280;61664;48.112;11.662;2023-04-01T05:53:29;94314.22;;;11.40
34310;BMP280;61664;48.112;11.662;2023-04-01T05:55:56;94325.41;;;11.38
34310;BMP280;61664;48.112;11.662;2023-04-01T05:58:23;94334.16;;;11.44
34310;BMP280;61664;48.112;11.662;2023-04-01T06:00:50;94313.25;;;11.43
34310;BMP280;61664;48.112;11.662;2023-04-01T06:03:35;94321.75;;;11.47
34310;BMP280;61664;48.112;11.662;2023-04-01T06:06:03;94329.78;;;11.52
34310;BMP280;61664;48.112;11.662;2023-04-01T06:08:31;94326.34;;;11.58
34310;BMP280;61664;48.112;11.662;2023-04-01T06:30:47;94327.03;;;11.80
34310;BMP280;61664;48.112;11.662;2023-04-01T06:36:16;94338.22;;;11.90
34310;BMP280;61664;48.112;11.662;2023-04-01T06:39:14;94330.91;;;11.91
34310;BMP280;61664;48.112;11.662;2023-04-01T06:45:28;94326.78;;;11.95
34310;BMP280;61664;48.112;11.662;2023-04-01T06:54:09;94324.53;;;12.10
34310;BMP280;61664;48.112;11.662;2023-04-01T06:56:40;94331.06;;;12.20
34310;BMP280;61664;48.112;11.662;2023-04-01T06:59:27;94334.47;;;12.27
34310;BMP280;61664;48.112;11.662;2023-04-01T07:02:01;94333.25;;;12.28
34310;BMP280;61664;48.112;11.662;2023-04-01T07:04:35;94330.56;;;12.28
34310;BMP280;61664;48.112;11.662;2023-04-01T07:07:14;94334.63;;;12.40
34310;BMP280;61664;48.112;11.662;2023-04-01T07:09:49;94318.09;;;12.41
34310;BMP280;61664;48.112;11.662;2023-04-01T07:15:23;94338.03;;;12.87
34310;BMP280;61664;48.112;11.662;2023-04-01T07:18:03;94348.47;;;12.90
34310;BMP280;61664;48.112;11.662;2023-04-01T07:20:35;94344.03;;;13.04
34310;BMP280;61664;48.112;11.662;2023-04-01T07:23:10;94334.50;;;13.09
34310;BMP280;61664;48.112;11.662;2023-04-01T07:25:44;94338.63;;;13.10
34310;BMP280;61664;48.112;11.662;2023-04-01T07:28:15;94341.31;;;13.10
34310;BMP280;61664;48.112;11.662;2023-04-01T07:33:50;94342.00;;;13.16
34310;BMP280;61664;48.112;11.662;2023-04-01T07:42:36;94336.63;;;13.16
34310;BMP280;61664;48.112;11.662;2023-04-01T07:45:39;94353.84;;;13.26
34310;BMP280;61664;48.112;11.662;2023-04-01T07:57:01;94328.97;;;13.31
34310;BMP280;61664;48.112;11.662;2023-04-01T08:03:05;94327.75;;;13.56
34310;BMP280;61664;48.112;11.662;2023-04-01T08:06:00;94351.47;;;13.77
34310;BMP280;61664;48.112;11.662;2023-04-01T08:09:10;94352.38;;;13.85
34310;BMP280;61664;48.112;11.662;2023-04-01T08:12:11;94356.13;;;14.01
34310;BMP280;61664;48.112;11.662;2023-04-01T08:14:59;94340.44;;;14.05
34310;BMP280;61664;48.112;11.662;2023-04-01T08:18:04;94353.31;;;14.30
34310;BMP280;61664;48.112;11.662;2023-04-01T08:20:50;94356.25;;;14.32
34310;BMP280;61664;48.112;11.662;2023-04-01T08:23:32;94356.25;;;14.32
34310;BMP280;61664;48.112;11.662;2023-04-01T08:26:37;94355.50;;;14.32
34310;BMP280;61664;48.112;11.662;2023-04-01T08:31:40;94341.59;;;14.52
34310;BMP280;61664;48.112;11.662;2023-04-01T08:34:34;94341.50;;;14.77
34310;BMP280;61664;48.112;11.662;2023-04-01T08:37:14;94317.56;;;14.92
34310;BMP280;61664;48.112;11.662;2023-04-01T08:40:00;94340.38;;;15.62
34310;BMP280;61664;48.112;11.662;2023-04-01T08:43:12;94337.19;;;16.51
34310;BMP280;61664;48.112;11.662;2023-04-01T08:46:22;94334.31;;;17.11
34310;BMP280;61664;48.112;11.662;2023-04-01T08:52:07;94330.66;;;17.78
34310;BMP280;61664;48.112;11.662;2023-04-01T08:55:15;94332.31;;;17.53
34310;BMP280;61664;48.112;11.662;2023-04-01T08:58:19;94336.97;;;17.24
34310;BMP280;61664;48.112;11.662;2023-04-01T09:00:57;94317.94;;;16.88
34310;BMP280;61664;48.112;11.662;2023-04-01T09:06:37;94341.38;;;16.93
34310;BMP280;61664;48.112;11.662;2023-04-01T09:12:26;94331.00;;;18.11
34310;BMP280;61664;48.112;11.662;2023-04-01T09:15:42;94328.25;;;18.62
34310;BMP280;61664;48.112;11.662;2023-04-01T09:22:37;94328.91;;;17.88
34310;BMP280;61664;48.112;11.662;2023-04-01T09:24:57;94303.44;;;18.20
34310;BMP280;61664;48.112;11.662;2023-04-01T09:33:49;94314.47;;;19.66
34310;BMP280;61664;48.112;11.662;2023-04-01T09:39:16;94302.56;;;18.25
34310;BMP280;61664;48.112;11.662;2023-04-01T09:45:06;94311.66;;;17.63
34310;BMP280;61664;48.112;11.662;2023-04-01T09:56:40;94284.38;;;16.76
34310;BMP280;61664;48.112;11.662;2023-04-01T10:14:24;94275.00;;;17.18
34310;BMP280;61664;48.112;11.662;2023-04-01T10:17:55;94279.22;;;17.06
34310;BMP280;61664;48.112;11.662;2023-04-01T10:20:31;94290.97;;;16.88
34310;BMP280;61664;48.112;11.662;2023-04-01T10:28:42;94275.81;;;16.85
34310;BMP280;61664;48.112;11.662;2023-04-01T10:31:47;94271.56;;;16.69
34310;BMP280;61664;48.112;11.662;2023-04-01T11:08:39;94305.28;;;16.41
34310;BMP280;61664;48.112;11.662;2023-04-01T11:12:09;94294.56;;;16.15
34310;BMP280;61664;48.112;11.662;2023-04-01T11:33:49;94323.00;;;14.86
34310;BMP280;61664;48.112;11.662;2023-04-01T11:39:36;94328.91;;;15.17
34310;BMP280;61664;48.112;11.662;2023-04-01T11:54:19;94336.06;;;14.63
34310;BMP280;61664;48.112;11.662;2023-04-01T12:07:06;94384.50;;;13.36
34310;BMP280;61664;48.112;11.662;2023-04-01T12:10:06;94376.88;;;13.16
34310;BMP280;61664;48.112;11.662;2023-04-01T12:12:48;94358.25;;;12.88
34310;BMP280;61664;48.112;11.662;2023-04-01T12:16:13;94364.25;;;12.58
34310;BMP280;61664;48.112;11.662;2023-04-01T12:19:26;94352.78;;;12.06
34310;BMP280;61664;48.112;11.662;2023-04-01T12:22:32;94374.19;;;12.00
34310;BMP280;61664;48.112;11.662;2023-04-01T12:29:17;94359.91;;;11.70
34310;BMP280;61664;48.112;11.662;2023-04-01T12:45:32;94350.19;;;11.11
34310;BMP280;61664;48.112;11.662;2023-04-01T12:51:35;94351.84;;;10.97
34310;BMP280;61664;48.112;11.662;2023-04-01T12:57:33;94369.56;;;10.95
34310;BMP280;61664;48.112;11.662;2023-04-01T13:00:39;94363.28;;;10.92
34310;BMP280;61664;48.112;11.662;2023-04-01T13:15:39;94372.91;;;10.67
34310;BMP280;61664;48.112;11.662;2023-04-01T13:18:43;94355.88;;;10.59
34310;BMP280;61664;48.112;11.662;2023-04-01T13:21:39;94358.53;;;10.53
34310;BMP280;61664;48.112;11.662;2023-04-01T13:25:10;94372.38;;;10.52
34310;BMP280;61664;48.112;11.662;2023-04-01T13:27:48;94365.59;;;10.51
34310;BMP280;61664;48.112;11.662;2023-04-01T13:30:44;94381.34;;;10.54
34310;BMP280;61664;48.112;11.662;2023-04-01T13:36:39;94374.53;;;10.53
34310;BMP280;61664;48.112;11.662;2023-04-01T13:39:27;94385.22;;;10.53
34310;BMP280;61664;48.112;11.662;2023-04-01T13:42:33;94379.88;;;10.53
34310;BMP280;61664;48.112;11.662;2023-04-01T13:45:23;94385.97;;;10.54
34310;BMP280;61664;48.112;11.662;2023-04-01T14:00:56;94388.00;;;10.81
34310;BMP280;61664;48.112;11.662;2023-04-01T14:03:48;94369.31;;;10.81
34310;BMP280;61664;48.112;11.662;2023-04-01T14:06:35;94386.09;;;10.99
34310;BMP280;61664;48.112;11.662;2023-04-01T14:12:11;94375.22;;;11.13
34310;BMP280;61664;48.112;11.662;2023-04-01T14:15:18;94374.75;;;11.32
34310;BMP280;61664;48.112;11.662;2023-04-01T14:18:05;94376.41;;;11.40
34310;BMP280;61664;48.112;11.662;2023-04-01T14:26:59;94370.84;;;11.22
34310;BMP280;61664;48.112;11.662;2023-04-01T14:33:21;94370.38;;;11.23
34310;BMP280;61664;48.112;11.662;2023-04-01T14:36:31;94386.66;;;11.25
34310;BMP280;61664;48.112;11.662;2023-04-01T14:48:25;94384.22;;;11.38
34310;BMP280;61664;48.112;11.662;2023-04-01T14:51:04;94376.69;;;11.42
34310;BMP280;61664;48.112;11.662;2023-04-01T14:54:07;94390.06;;;11.48
34310;BMP280;61664;48.112;11.662;2023-04-01T14:56:43;94392.22;;;11.49
34310;BMP280;61664;48.112;11.662;2023-04-01T14:59:28;94390.56;;;11.46
34310;BMP280;61664;48.112;11.662;2023-04-01T15:02:41;94379.38;;;11.42
34310;BMP280;61664;48.112;11.662;2023-04-01T15:05:43;94384.97;;;11.44
34310;BMP280;61664;48.112;11.662;2023-04-01T15:08:21;94389.81;;;11.46
34310;BMP280;61664;48.112;11.662;2023-04-01T15:23:20;94391.75;;;11.34
34310;BMP280;61664;48.112;11.662;2023-04-01T15:26:13;94390.03;;;11.20
34310;BMP280;61664;48.112;11.662;2023-04-01T15:41:02;94398.28;;;11.11
34310;BMP280;61664;48.112;11.662;2023-04-01T15:43:48;94411.94;;;11.24
34310;BMP280;61664;48.112;11.662;2023-04-01T15:52:35;94418.75;;;11.36
34310;BMP280;61664;48.112;11.662;2023-04-01T16:07:16;94414.88;;;11.71
34310;BMP280;61664;48.112;11.662;2023-04-01T16:10:34;94405.13;;;11.79
34310;BMP280;61664;48.112;11.662;2023-04-01T16:13:24;94409.00;;;11.78
34310;BMP280;61664;48.112;11.662;2023-04-01T16:16:25;94401.94;;;11.86
34310;BMP280;61664;48.112;11.662;2023-04-01T16:19:04;94410.97;;;11.94
34310;BMP280;61664;48.112;11.662;2023-04-01T16:25:07;94416.09;;;11.92
34310;BMP280;61664;48.112;11.662;2023-04-01T16:27:51;94385.19;;;11.91
34310;BMP280;61664;48.112;11.662;2023-04-01T16:30:37;94395.09;;;12.07
34310;BMP280;61664;48.112;11.662;2023-04-01T16:33:35;94400.00;;;12.03
34310;BMP280;61664;48.112;11.662;2023-04-01T16:36:13;94407.28;;;12.08
34310;BMP280;61664;48.112;11.662;2023-04-01T16:39:35;94408.72;;;12.09
34310;BMP280;61664;48.112;11.662;2023-04-01T16:47:54;94417.97;;;12.19
34310;BMP280;61664;48.112;11.662;2023-04-01T16:50:29;94413.09;;;12.18
34310;BMP280;61664;48.112;11.662;2023-04-01T16:56:24;94412.41;;;12.06
34310;BMP280;61664;48.112;11.662;2023-04-01T16:59:33;94422.38;;;12.06
34310;BMP280;61664;48.112;11.662;2023-04-01T17:02:13;94421.66;;;12.05
34310;BMP280;61664;48.112;11.662;2023-04-01T17:04:48;94441.34;;;12.08
34310;BMP280;61664;48.112;11.662;2023-04-01T17:13:46;94443.31;;;12.02
34310;BMP280;61664;48.112;11.662;2023-04-01T17:17:05;94446.44;;;12.00
34310;BMP280;61664;48.112;11.662;2023-04-01T17:22:54;94453.06;;;11.99
34310;BMP280;61664;48.112;11.662;2023-04-01T17:31:36;94449.91;;;11.84
34310;BMP280;61664;48.112;11.662;2023-04-01T17:49:39;94465.94;;;11.95
34310;BMP280;61664;48.112;11.662;2023-04-01T17:58:21;94464.97;;;11.93
34310;BMP280;61664;48.112;11.662;2023-04-01T18:01:37;94458.63;;;11.90
34310;BMP280;61664;48.112;11.662;2023-04-01T18:04:14;94469.84;;;11.94
34310;BMP280;61664;48.112;11.662;2023-04-01T18:06:55;94464.72;;;11.96
34310;BMP280;61664;48.112;11.662;2023-04-01T18:15:59;94473.22;;;12.00
34310;BMP280;61664;48.112;11.662;2023-04-01T18:24:33;94496.63;;;12.05
34310;BMP280;61664;48.112;11.662;2023-04-01T18:27:19;94506.09;;;11.95
34310;BMP280;61664;48.112;11.662;2023-04-01T18:29:55;94485.91;;;11.77
34310;BMP280;61664;48.112;11.662;2023-04-01T18:32:44;94508.75;;;11.73
34310;BMP280;61664;48.112;11.662;2023-04-01T18:35:24;94500.44;;;11.48
34310;BMP280;61664;48.112;11.662;2023-04-01T18:40:40;94515.66;;;11.20
34310;BMP280;61664;48.112;11.662;2023-04-01T18:43:42;94484.94;;;10.87
34310;BMP280;61664;48.112;11.662;2023-04-01T18:46:24;94514.56;;;10.84
34310;BMP280;61664;48.112;11.662;2023-04-01T18:50:28;94539.25;;;10.68
34310;BMP280;61664;48.112;11.662;2023-04-01T18:52:44;94517.81;;;10.57
34310;BMP280;61664;48.112;11.662;2023-04-01T18:57:54;94532.59;;;10.52
34310;BMP280;61664;48.112;11.662;2023-04-01T19:00:36;94525.81;;;10.51
34310;BMP280;61664;48.112;11.662;2023-04-01T19:03:28;94521.94;;;10.52
34310;BMP280;61664;48.112;11.662;2023-04-01T19:06:15;94530.16;;;10.54
34310;BMP280;61664;48.112;11.662;2023-04-01T19:11:43;94545.78;;;10.61
34310;BMP280;61664;48.112;11.662;2023-04-01T19:17:52;94519.75;;;10.56
34310;BMP280;61664;48.112;11.662;2023-04-01T19:26:58;94535.16;;;10.72
34310;BMP280;61664;48.112;11.662;2023-04-01T19:38:38;94549.31;;;10.90
34310;BMP280;61664;48.112;11.662;2023-04-01T19:44:20;94546.94;;;10.92
34310;BMP280;61664;48.112;11.662;2023-04-01T19:47:35;94561.34;;;11.11
34310;BMP280;61664;48.112;11.662;2023-04-01T19:52:59;94556.03;;;11.16
34310;BMP280;61664;48.112;11.662;2023-04-01T19:58:43;94578.44;;;11.30
34310;BMP280;61664;48.112;11.662;2023-04-01T20:04:04;94569.94;;;11.32
34310;BMP280;61664;48.112;11.662;2023-04-01T20:06:46;94577.44;;;11.28
34310;BMP280;61664;48.112;11.662;2023-04-01T20:15:30;94586.09;;;11.06
34310;BMP280;61664;48.112;11.662;2023-04-01T20:18:23;94584.13;;;11.01
34310;BMP280;61664;48.112;11.662;2023-04-01T20:21:05;94573.66;;;10.92
34310;BMP280;61664;48.112;11.662;2023-04-01T20:26:13;94584.53;;;10.88
34310;BMP280;61664;48.112;11.662;2023-04-01T20:29:37;94594.25;;;10.85
34310;BMP280;61664;48.112;11.662;2023-04-01T20:32:19;94595.94;;;10.83
34310;BMP280;61664;48.112;11.662;2023-04-01T20:35:31;94591.75;;;10.76
34310;BMP280;61664;48.112;11.662;2023-04-01T20:38:35;94593.25;;;10.83
34310;BMP280;61664;48.112;11.662;2023-04-01T20:44:12;94587.88;;;10.77
34310;BMP280;61664;48.112;11.662;2023-04-01T20:47:00;94596.41;;;10.81
34310;BMP280;61664;48.112;11.662;2023-04-01T20:49:56;94592.72;;;10.79
34310;BMP280;61664;48.112;11.662;2023-04-01T20:52:40;94599.59;;;10.85
34310;BMP280;61664;48.112;11.662;2023-04-01T20:55:21;94596.94;;;10.85
34310;BMP280;61664;48.112;11.662;2023-04-01T21:09:43;94606.63;;;10.88
34310;BMP280;61664;48.112;11.662;2023-04-01T21:12:54;94585.22;;;10.77
34310;BMP280;61664;48.112;11.662;2023-04-01T21:30:48;94605.72;;;10.92
34310;BMP280;61664;48.112;11.662;2023-04-01T21:44:49;94620.81;;;11.00
34310;BMP280;61664;48.112;11.662;2023-04-01T21:48:34;94626.38;;;10.97
34310;BMP280;61664;48.112;11.662;2023-04-01T21:51:43;94638.09;;;11.05
34310;BMP280;61664;48.112;11.662;2023-04-01T21:58:08;94632.22;;;11.01
34310;BMP280;61664;48.112;11.662;2023-04-01T22:01:00;94638.34;;;11.01
34310;BMP280;61664;48.112;11.662;2023-04-01T22:06:51;94643.25;;;11.14
34310;BMP280;61664;48.112;11.662;2023-04-01T22:09:36;94641.28;;;11.09
34310;BMP280;61664;48.112;11.662;2023-04-01T22:12:35;94640.78;;;11.10
34310;BMP280;61664;48.112;11.662;2023-04-01T22:15:19;94658.56;;;11.19
34310;BMP280;61664;48.112;11.662;2023-04-01T22:18:00;94651.00;;;11.12
34310;BMP280;61664;48.112;11.662;2023-04-01T22:21:00;94652.75;;;11.15
34310;BMP280;61664;48.112;11.662;2023-04-01T22:23:50;94651.75;;;11.12
34310;BMP280;61664;48.112;11.662;2023-04-01T22:26:46;94638.34;;;11.07
34310;BMP280;61664;48.112;11.662;2023-04-01T22:35:20;94663.47;;;11.26
34310;BMP280;61664;48.112;11.662;2023-04-01T22:40:55;94650.84;;;11.27
34310;BMP280;61664;48.112;11.662;2023-04-01T22:43:38;94645.94;;;11.19
34310;BMP280;61664;48.112;11.662;2023-04-01T22:49:18;94658.63;;;11.25
34310;BMP280;61664;48.112;11.662;2023-04-01T22:52:03;94664.94;;;11.27
34310;BMP280;61664;48.112;11.662;2023-04-01T22:54:54;94666.88;;;11.27
34310;BMP280;61664;48.112;11.662;2023-04-01T22:57:57;94660.31;;;11.28
34310;BMP280;61664;48.112;11.662;2023-04-01T23:00:42;94668.81;;;11.26
34310;BMP280;61664;48.112;11.662;2023-04-01T23:03:31;94667.63;;;11.27
34310;BMP280;61664;48.112;11.662;2023-04-01T23:06:02;94664.94;;;11.27
34310;BMP280;61664;48.112;11.662;2023-04-01T23:11:15;94659.84;;;11.24
34310;BMP280;61664;48.112;11.662;2023-04-01T23:13:56;94654.25;;;11.27
34310;BMP280;61664;48.112;11.662;2023-04-01T23:16:43;94667.63;;;11.27
34310;BMP280;61664;48.112;11.662;2023-04-01T23:19:44;94669.84;;;11.34
34310;BMP280;61664;48.112;11.662;2023-04-01T23:22:34;94683.22;;;11.34
34310;BMP280;61664;48.112;11.662;2023-04-01T23:25:27;94686.13;;;11.31
34310;BMP280;61664;48.112;11.662;2023-04-01T23:36:02;94693.41;;;11.30
34310;BMP280;61664;48.112;11.662;2023-04-01T23:38:38;94691.94;;;11.24
34310;BMP280;61664;48.112;11.662;2023-04-01T23:41:24;94688.78;;;11.25